JTA9 RJBB-ROAH
Flight info
| Callsign | JTA9 |
|---|---|
| Flight time | N/A |
| Altitude | 39000 |
| Route | OBLUR Y236 MULAB Y75 ONC Y525 IHEYA |
| Aircraft | A20N/M-SDE2E3FGHIRWXY/LB1 |
Departure
| Time | N/A |
|---|---|
| Airport | Kansai International Airport (RJBB) |
Arrival
| Time | 2026-04-29 10:38 |
|---|---|
| Airport | Naha International Airport (ROAH) |
| Time | Latitude | Longitude | Altitude | Speed | Heading |
|---|---|---|---|---|---|
| 2026-04-29 10:13 | 27.89244 | 128.98885 | 33397 ft | 416 kts | 214° |
| 2026-04-29 10:13 | 27.86755 | 128.97307 | 32702 ft | 416 kts | 213° |
| 2026-04-29 10:13 | 27.84231 | 128.95709 | 31901 ft | 417 kts | 213° |
| 2026-04-29 10:13 | 27.81699 | 128.94106 | 31123 ft | 419 kts | 213° |
| 2026-04-29 10:14 | 27.79151 | 128.92494 | 30339 ft | 421 kts | 213° |
| 2026-04-29 10:14 | 27.76579 | 128.90867 | 29447 ft | 424 kts | 212° |
| 2026-04-29 10:14 | 27.73995 | 128.89234 | 28558 ft | 427 kts | 212° |
| 2026-04-29 10:14 | 27.71397 | 128.87592 | 27702 ft | 429 kts | 212° |
| 2026-04-29 10:15 | 27.68786 | 128.85944 | 26762 ft | 432 kts | 212° |
| 2026-04-29 10:15 | 27.66154 | 128.84284 | 25820 ft | 434 kts | 212° |
| 2026-04-29 10:15 | 27.63505 | 128.82614 | 24934 ft | 439 kts | 211° |
| 2026-04-29 10:15 | 27.60788 | 128.80900 | 24647 ft | 458 kts | 211° |
| 2026-04-29 10:16 | 27.58011 | 128.79148 | 24415 ft | 466 kts | 211° |
| 2026-04-29 10:16 | 27.55174 | 128.77362 | 24183 ft | 467 kts | 211° |
| 2026-04-29 10:16 | 27.52342 | 128.75583 | 23962 ft | 466 kts | 211° |
| 2026-04-29 10:16 | 27.49513 | 128.73808 | 23743 ft | 465 kts | 211° |
| 2026-04-29 10:17 | 27.46700 | 128.72018 | 23510 ft | 463 kts | 213° |
| 2026-04-29 10:17 | 27.44140 | 128.69853 | 23234 ft | 459 kts | 223° |
| 2026-04-29 10:17 | 27.42038 | 128.67177 | 23023 ft | 456 kts | 233° |
| 2026-04-29 10:17 | 27.40227 | 128.64253 | 22768 ft | 454 kts | 237° |
| 2026-04-29 10:18 | 27.38585 | 128.61290 | 22511 ft | 452 kts | 239° |
| 2026-04-29 10:18 | 27.36997 | 128.58247 | 22265 ft | 450 kts | 240° |
| 2026-04-29 10:18 | 27.35444 | 128.55208 | 22011 ft | 448 kts | 240° |
| 2026-04-29 10:18 | 27.33896 | 128.52175 | 21755 ft | 446 kts | 240° |
| 2026-04-29 10:19 | 27.32347 | 128.49165 | 21512 ft | 444 kts | 240° |
| 2026-04-29 10:19 | 27.30846 | 128.46277 | 21269 ft | 442 kts | 239° |
| 2026-04-29 10:19 | 27.29287 | 128.43301 | 21011 ft | 441 kts | 239° |
| 2026-04-29 10:19 | 27.27725 | 128.40336 | 20767 ft | 439 kts | 239° |
| 2026-04-29 10:20 | 27.26187 | 128.37427 | 20534 ft | 438 kts | 239° |
| 2026-04-29 10:20 | 27.24635 | 128.34497 | 20294 ft | 436 kts | 239° |
| 2026-04-29 10:20 | 27.23086 | 128.31574 | 20059 ft | 434 kts | 239° |
| 2026-04-29 10:20 | 27.21544 | 128.28664 | 19826 ft | 433 kts | 239° |
| 2026-04-29 10:21 | 27.20009 | 128.25770 | 19596 ft | 431 kts | 239° |
| 2026-04-29 10:21 | 27.18476 | 128.22881 | 19366 ft | 429 kts | 239° |
| 2026-04-29 10:21 | 27.16949 | 128.20004 | 19127 ft | 428 kts | 239° |
| 2026-04-29 10:21 | 27.15429 | 128.17142 | 18916 ft | 426 kts | 239° |
| 2026-04-29 10:22 | 27.13932 | 128.14325 | 18433 ft | 413 kts | 239° |
| 2026-04-29 10:22 | 27.12497 | 128.11626 | 17675 ft | 403 kts | 239° |
| 2026-04-29 10:22 | 27.11078 | 128.08959 | 16995 ft | 392 kts | 239° |
| 2026-04-29 10:22 | 27.09696 | 128.06363 | 16331 ft | 382 kts | 239° |
| 2026-04-29 10:23 | 27.08338 | 128.03814 | 15671 ft | 380 kts | 239° |
| 2026-04-29 10:23 | 27.06984 | 128.01273 | 15010 ft | 378 kts | 239° |
| 2026-04-29 10:23 | 27.05638 | 127.98748 | 14354 ft | 375 kts | 239° |
| 2026-04-29 10:23 | 27.04310 | 127.96259 | 13697 ft | 368 kts | 238° |
| 2026-04-29 10:24 | 27.03003 | 127.93812 | 13008 ft | 365 kts | 238° |
| 2026-04-29 10:24 | 27.01556 | 127.91485 | 12341 ft | 364 kts | 230° |
| 2026-04-29 10:24 | 26.99690 | 127.89592 | 11700 ft | 363 kts | 216° |
| 2026-04-29 10:24 | 26.97548 | 127.88190 | 11133 ft | 358 kts | 209° |
| 2026-04-29 10:25 | 26.95407 | 127.86975 | 11020 ft | 332 kts | 208° |
| 2026-04-29 10:25 | 26.93419 | 127.85865 | 10957 ft | 307 kts | 208° |
| 2026-04-29 10:25 | 26.91571 | 127.84829 | 10854 ft | 288 kts | 209° |
| 2026-04-29 10:25 | 26.89835 | 127.83851 | 10716 ft | 272 kts | 209° |
| 2026-04-29 10:26 | 26.88187 | 127.82918 | 10606 ft | 260 kts | 209° |
| 2026-04-29 10:26 | 26.86604 | 127.82020 | 10482 ft | 250 kts | 210° |
| 2026-04-29 10:26 | 26.85058 | 127.81141 | 10245 ft | 249 kts | 210° |
| 2026-04-29 10:26 | 26.83509 | 127.80260 | 9929 ft | 250 kts | 210° |
| 2026-04-29 10:27 | 26.80442 | 127.78516 | 9371 ft | 249 kts | 210° |
| 2026-04-29 10:27 | 26.78902 | 127.77642 | 9101 ft | 248 kts | 209° |
| 2026-04-29 10:27 | 26.77368 | 127.76771 | 8817 ft | 246 kts | 209° |
| 2026-04-29 10:28 | 26.75843 | 127.75906 | 8539 ft | 245 kts | 209° |
| 2026-04-29 10:28 | 26.74325 | 127.75045 | 8266 ft | 244 kts | 209° |
| 2026-04-29 10:28 | 26.72811 | 127.74187 | 7988 ft | 243 kts | 209° |
| 2026-04-29 10:28 | 26.71307 | 127.73334 | 7757 ft | 242 kts | 208° |
| 2026-04-29 10:29 | 26.69807 | 127.72484 | 7475 ft | 241 kts | 208° |
| 2026-04-29 10:29 | 26.68336 | 127.71651 | 7189 ft | 240 kts | 208° |
| 2026-04-29 10:29 | 26.66848 | 127.70809 | 6896 ft | 239 kts | 208° |
| 2026-04-29 10:29 | 26.65368 | 127.69971 | 6582 ft | 238 kts | 207° |
| 2026-04-29 10:30 | 26.63899 | 127.69139 | 6292 ft | 236 kts | 207° |
| 2026-04-29 10:30 | 26.62441 | 127.68314 | 5991 ft | 234 kts | 207° |
| 2026-04-29 10:30 | 26.60995 | 127.67496 | 5722 ft | 233 kts | 207° |
| 2026-04-29 10:30 | 26.59548 | 127.66677 | 5441 ft | 233 kts | 207° |
| 2026-04-29 10:31 | 26.58128 | 127.65874 | 5166 ft | 231 kts | 207° |
| 2026-04-29 10:31 | 26.56700 | 127.65067 | 4880 ft | 229 kts | 206° |
| 2026-04-29 10:31 | 26.55283 | 127.64266 | 4591 ft | 228 kts | 206° |
| 2026-04-29 10:31 | 26.53872 | 127.63469 | 4323 ft | 227 kts | 206° |
| 2026-04-29 10:32 | 26.52463 | 127.62673 | 4057 ft | 227 kts | 206° |
| 2026-04-29 10:32 | 26.51046 | 127.61885 | 3769 ft | 227 kts | 203° |
| 2026-04-29 10:32 | 26.49541 | 127.61390 | 3492 ft | 225 kts | 186° |
| 2026-04-29 10:32 | 26.47979 | 127.61447 | 3221 ft | 225 kts | 175° |
| 2026-04-29 10:33 | 26.46433 | 127.61701 | 2944 ft | 224 kts | 172° |
| 2026-04-29 10:33 | 26.44920 | 127.61982 | 2689 ft | 222 kts | 171° |
| 2026-04-29 10:33 | 26.43408 | 127.62262 | 2426 ft | 218 kts | 171° |
| 2026-04-29 10:33 | 26.41952 | 127.62528 | 2330 ft | 205 kts | 171° |
| 2026-04-29 10:34 | 26.40584 | 127.62775 | 2251 ft | 194 kts | 171° |
| 2026-04-29 10:34 | 26.39280 | 127.63007 | 2155 ft | 187 kts | 171° |
| 2026-04-29 10:34 | 26.37987 | 127.63238 | 1906 ft | 190 kts | 170° |
| 2026-04-29 10:34 | 26.36672 | 127.63472 | 1651 ft | 193 kts | 169° |
| 2026-04-29 10:35 | 26.35329 | 127.63713 | 1389 ft | 197 kts | 169° |
| 2026-04-29 10:35 | 26.33982 | 127.63893 | 1241 ft | 191 kts | 173° |
| 2026-04-29 10:35 | 26.32733 | 127.63968 | 1275 ft | 171 kts | 174° |
| 2026-04-29 10:35 | 26.31592 | 127.64021 | 1268 ft | 165 kts | 174° |
| 2026-04-29 10:36 | 26.30437 | 127.64075 | 1249 ft | 167 kts | 175° |
| 2026-04-29 10:36 | 26.29273 | 127.64130 | 1201 ft | 168 kts | 174° |
| 2026-04-29 10:36 | 26.28106 | 127.64186 | 1194 ft | 168 kts | 174° |
| 2026-04-29 10:36 | 26.26937 | 127.64242 | 1194 ft | 168 kts | 175° |
| 2026-04-29 10:37 | 26.25793 | 127.64295 | 1068 ft | 162 kts | 175° |
| 2026-04-29 10:37 | 26.24671 | 127.64349 | 720 ft | 159 kts | 175° |
| 2026-04-29 10:37 | 26.23546 | 127.64394 | 563 ft | 162 kts | 176° |
| 2026-04-29 10:37 | 26.22491 | 127.64398 | 520 ft | 139 kts | 178° |
| 2026-04-29 10:38 | 26.21570 | 127.64495 | 165 ft | 133 kts | 172° |
| 2026-04-29 10:38 | 26.20692 | 127.64532 | 29 ft | 120 kts | 173° |
| 2026-04-29 10:38 | 26.20205 | 127.64565 | 27 ft | 6 kts | 145° |
| 2026-04-29 10:38 | 26.20252 | 127.64601 | 27 ft | 16 kts | 17° |
| 2026-04-29 10:39 | 26.20389 | 127.64695 | 26 ft | 23 kts | 60° |
| 2026-04-29 10:39 | 26.20427 | 127.64875 | 29 ft | 17 kts | 34° |
| 2026-04-29 10:39 | 26.20445 | 127.64886 | 25 ft | 0 kts | 28° |